Tiree, United Kingdom
Current Conditions -  °F | °C
As of 11:20 AM on Wednesday 26 Nov 2014 (Local Time) from EGPU Reporting Station
Broken Clouds Broken Clouds  
Wind Chill: 42°   Ceiling: 3900
Heat Index: 48°   Visibility: 6mi
Dew Point: 43°   Wind: 17mph
Humidity: 82%   Direction: 190°S
Pressure: 29.91"   Gusts: NA
Location:  56.5°N, 6.88°W
Report Text: EGPU 261120Z 19015KT 9999 FEW018 SCT029 BKN039 09/06 Q1013
Loading
Personal Weather Stations






























Interactive Weather Map New forecast layout! Learn more

10-Day Weather Forecast

Advertisements
Track Severe Weather on mobile